sensor_id;sensor_type;location;lat;lon;timestamp;temperature;humidity
25138;DHT22;13112;50.986;4.354;2023-03-02T00:02:04;1.10;99.90
25138;DHT22;13112;50.986;4.354;2023-03-02T00:04:36;1.10;99.90
25138;DHT22;13112;50.986;4.354;2023-03-02T00:07:06;1.10;99.90
25138;DHT22;13112;50.986;4.354;2023-03-02T00:09:33;1.10;99.90
25138;DHT22;13112;50.986;4.354;2023-03-02T00:11:59;1.10;99.90
25138;DHT22;13112;50.986;4.354;2023-03-02T00:14:25;1.10;99.90
25138;DHT22;13112;50.986;4.354;2023-03-02T00:16:51;1.10;99.90
25138;DHT22;13112;50.986;4.354;2023-03-02T00:19:16;1.10;99.90
25138;DHT22;13112;50.986;4.354;2023-03-02T00:21:42;1.10;99.90
25138;DHT22;13112;50.986;4.354;2023-03-02T00:24:08;1.10;99.90
25138;DHT22;13112;50.986;4.354;2023-03-02T00:26:34;1.10;99.90
25138;DHT22;13112;50.986;4.354;2023-03-02T00:29:00;1.00;99.90
25138;DHT22;13112;50.986;4.354;2023-03-02T00:31:26;1.10;99.90
25138;DHT22;13112;50.986;4.354;2023-03-02T00:33:52;1.00;99.90
25138;DHT22;13112;50.986;4.354;2023-03-02T00:36:19;1.00;99.90
25138;DHT22;13112;50.986;4.354;2023-03-02T00:38:45;1.00;99.90
25138;DHT22;13112;50.986;4.354;2023-03-02T00:41:12;1.00;99.90
25138;DHT22;13112;50.986;4.354;2023-03-02T00:43:39;1.00;99.90
25138;DHT22;13112;50.986;4.354;2023-03-02T00:46:16;0.80;99.90
25138;DHT22;13112;50.986;4.354;2023-03-02T00:48:42;0.80;99.90
25138;DHT22;13112;50.986;4.354;2023-03-02T00:51:08;0.80;99.90
25138;DHT22;13112;50.986;4.354;2023-03-02T00:53:35;0.80;99.90
25138;DHT22;13112;50.986;4.354;2023-03-02T00:56:01;0.80;99.90
25138;DHT22;13112;50.986;4.354;2023-03-02T00:58:29;0.70;99.90
25138;DHT22;13112;50.986;4.354;2023-03-02T01:00:55;0.70;99.90
25138;DHT22;13112;50.986;4.354;2023-03-02T01:03:21;0.70;99.90
25138;DHT22;13112;50.986;4.354;2023-03-02T01:05:47;0.70;99.90
25138;DHT22;13112;50.986;4.354;2023-03-02T01:08:13;0.70;99.90
25138;DHT22;13112;50.986;4.354;2023-03-02T01:10:39;0.60;99.90
25138;DHT22;13112;50.986;4.354;2023-03-02T01:13:05;0.60;99.90
25138;DHT22;13112;50.986;4.354;2023-03-02T01:15:32;0.60;99.90
25138;DHT22;13112;50.986;4.354;2023-03-02T01:18:01;0.60;99.90
25138;DHT22;13112;50.986;4.354;2023-03-02T01:20:27;0.60;99.90
25138;DHT22;13112;50.986;4.354;2023-03-02T01:22:52;0.60;99.90
25138;DHT22;13112;50.986;4.354;2023-03-02T01:25:18;0.60;99.90
25138;DHT22;13112;50.986;4.354;2023-03-02T01:27:44;0.60;99.90
25138;DHT22;13112;50.986;4.354;2023-03-02T01:30:10;0.60;99.90
25138;DHT22;13112;50.986;4.354;2023-03-02T01:32:36;0.60;99.90
25138;DHT22;13112;50.986;4.354;2023-03-02T01:35:02;0.50;99.90
25138;DHT22;13112;50.986;4.354;2023-03-02T01:37:27;0.50;99.90
25138;DHT22;13112;50.986;4.354;2023-03-02T01:39:53;0.50;99.90
25138;DHT22;13112;50.986;4.354;2023-03-02T01:42:19;0.50;99.90
25138;DHT22;13112;50.986;4.354;2023-03-02T01:44:49;0.50;99.90
25138;DHT22;13112;50.986;4.354;2023-03-02T01:50:00;0.50;99.90
25138;DHT22;13112;50.986;4.354;2023-03-02T01:52:28;0.40;99.90
25138;DHT22;13112;50.986;4.354;2023-03-02T01:54:57;0.40;99.90
25138;DHT22;13112;50.986;4.354;2023-03-02T01:57:26;0.40;99.90
25138;DHT22;13112;50.986;4.354;2023-03-02T01:59:57;0.40;99.90
25138;DHT22;13112;50.986;4.354;2023-03-02T02:02:24;0.40;99.90
25138;DHT22;13112;50.986;4.354;2023-03-02T02:04:51;0.30;99.90
25138;DHT22;13112;50.986;4.354;2023-03-02T02:07:17;0.30;99.90
25138;DHT22;13112;50.986;4.354;2023-03-02T02:09:46;0.30;99.90
25138;DHT22;13112;50.986;4.354;2023-03-02T02:12:17;0.20;99.90
25138;DHT22;13112;50.986;4.354;2023-03-02T02:14:45;0.20;99.90
25138;DHT22;13112;50.986;4.354;2023-03-02T02:17:11;0.20;99.90
25138;DHT22;13112;50.986;4.354;2023-03-02T02:22:10;0.20;99.90
25138;DHT22;13112;50.986;4.354;2023-03-02T02:24:45;0.30;99.90
25138;DHT22;13112;50.986;4.354;2023-03-02T02:27:14;0.30;99.90
25138;DHT22;13112;50.986;4.354;2023-03-02T02:29:46;0.30;99.90
25138;DHT22;13112;50.986;4.354;2023-03-02T02:32:16;0.30;99.90
25138;DHT22;13112;50.986;4.354;2023-03-02T02:34:50;0.30;99.90
25138;DHT22;13112;50.986;4.354;2023-03-02T02:37:42;0.30;99.90
25138;DHT22;13112;50.986;4.354;2023-03-02T02:40:35;0.30;99.90
25138;DHT22;13112;50.986;4.354;2023-03-02T02:43:03;0.30;99.90
25138;DHT22;13112;50.986;4.354;2023-03-02T02:45:29;0.30;99.90
25138;DHT22;13112;50.986;4.354;2023-03-02T02:47:56;0.30;99.90
25138;DHT22;13112;50.986;4.354;2023-03-02T02:50:25;0.40;99.90
25138;DHT22;13112;50.986;4.354;2023-03-02T02:52:58;0.40;99.90
25138;DHT22;13112;50.986;4.354;2023-03-02T02:55:25;0.70;99.90
25138;DHT22;13112;50.986;4.354;2023-03-02T02:57:54;0.50;99.90
25138;DHT22;13112;50.986;4.354;2023-03-02T03:00:21;0.50;99.90
25138;DHT22;13112;50.986;4.354;2023-03-02T03:02:53;0.50;99.90
25138;DHT22;13112;50.986;4.354;2023-03-02T03:05:22;0.60;99.90
25138;DHT22;13112;50.986;4.354;2023-03-02T03:07:47;0.70;99.90
25138;DHT22;13112;50.986;4.354;2023-03-02T03:10:27;0.70;99.90
25138;DHT22;13112;50.986;4.354;2023-03-02T03:12:54;0.70;99.90
25138;DHT22;13112;50.986;4.354;2023-03-02T03:15:21;0.70;99.90
25138;DHT22;13112;50.986;4.354;2023-03-02T03:17:57;0.60;99.90
25138;DHT22;13112;50.986;4.354;2023-03-02T03:20:24;0.50;99.90
25138;DHT22;13112;50.986;4.354;2023-03-02T03:22:49;0.40;99.90
25138;DHT22;13112;50.986;4.354;2023-03-02T03:25:23;0.40;99.90
25138;DHT22;13112;50.986;4.354;2023-03-02T03:27:49;0.30;99.90
25138;DHT22;13112;50.986;4.354;2023-03-02T03:30:15;0.30;99.90
25138;DHT22;13112;50.986;4.354;2023-03-02T03:32:41;0.30;99.90
25138;DHT22;13112;50.986;4.354;2023-03-02T03:35:07;0.20;99.90
25138;DHT22;13112;50.986;4.354;2023-03-02T03:37:37;0.20;99.90
25138;DHT22;13112;50.986;4.354;2023-03-02T03:40:03;0.20;99.90
25138;DHT22;13112;50.986;4.354;2023-03-02T03:42:30;0.10;99.90
25138;DHT22;13112;50.986;4.354;2023-03-02T03:44:56;0.10;99.90
25138;DHT22;13112;50.986;4.354;2023-03-02T03:47:22;0.10;99.90
25138;DHT22;13112;50.986;4.354;2023-03-02T03:49:47;0.10;99.90
25138;DHT22;13112;50.986;4.354;2023-03-02T03:52:13;0.10;99.90
25138;DHT22;13112;50.986;4.354;2023-03-02T03:54:39;0.10;99.90
25138;DHT22;13112;50.986;4.354;2023-03-02T03:57:05;0.10;99.90
25138;DHT22;13112;50.986;4.354;2023-03-02T03:59:30;0.10;99.90
25138;DHT22;13112;50.986;4.354;2023-03-02T04:01:59;0.10;99.90
25138;DHT22;13112;50.986;4.354;2023-03-02T04:04:28;0.10;99.90
25138;DHT22;13112;50.986;4.354;2023-03-02T04:06:54;0.00;99.90
25138;DHT22;13112;50.986;4.354;2023-03-02T04:09:21;0.00;99.90
25138;DHT22;13112;50.986;4.354;2023-03-02T04:11:49;0.00;99.90
25138;DHT22;13112;50.986;4.354;2023-03-02T04:14:16;-0.10;99.90
25138;DHT22;13112;50.986;4.354;2023-03-02T04:16:42;0.00;99.90
25138;DHT22;13112;50.986;4.354;2023-03-02T04:19:08;-0.10;99.90
25138;DHT22;13112;50.986;4.354;2023-03-02T04:21:41;-0.10;99.90
25138;DHT22;13112;50.986;4.354;2023-03-02T04:24:08;-0.10;99.90
25138;DHT22;13112;50.986;4.354;2023-03-02T04:26:35;0.00;99.90
25138;DHT22;13112;50.986;4.354;2023-03-02T04:29:01;0.10;99.90
25138;DHT22;13112;50.986;4.354;2023-03-02T04:31:27;0.10;99.90
25138;DHT22;13112;50.986;4.354;2023-03-02T04:33:52;0.10;99.90
25138;DHT22;13112;50.986;4.354;2023-03-02T04:36:18;0.00;99.90
25138;DHT22;13112;50.986;4.354;2023-03-02T04:38:45;0.10;99.90
25138;DHT22;13112;50.986;4.354;2023-03-02T04:41:11;0.20;99.90
25138;DHT22;13112;50.986;4.354;2023-03-02T04:43:36;0.20;99.90
25138;DHT22;13112;50.986;4.354;2023-03-02T04:46:02;0.20;99.90
25138;DHT22;13112;50.986;4.354;2023-03-02T04:48:28;0.20;99.90
25138;DHT22;13112;50.986;4.354;2023-03-02T04:50:54;0.10;99.90
25138;DHT22;13112;50.986;4.354;2023-03-02T04:53:19;0.20;99.90
25138;DHT22;13112;50.986;4.354;2023-03-02T04:55:45;0.10;99.90
25138;DHT22;13112;50.986;4.354;2023-03-02T04:58:11;0.10;99.90
25138;DHT22;13112;50.986;4.354;2023-03-02T05:00:37;0.00;99.90
25138;DHT22;13112;50.986;4.354;2023-03-02T05:03:03;0.10;99.90
25138;DHT22;13112;50.986;4.354;2023-03-02T05:05:30;0.10;99.90
25138;DHT22;13112;50.986;4.354;2023-03-02T05:07:55;0.10;99.90
25138;DHT22;13112;50.986;4.354;2023-03-02T05:10:23;0.00;99.90
25138;DHT22;13112;50.986;4.354;2023-03-02T05:12:48;0.10;99.90
25138;DHT22;13112;50.986;4.354;2023-03-02T05:15:28;0.00;99.90
25138;DHT22;13112;50.986;4.354;2023-03-02T05:17:54;0.00;99.90
25138;DHT22;13112;50.986;4.354;2023-03-02T05:20:20;0.00;99.90
25138;DHT22;13112;50.986;4.354;2023-03-02T05:22:53;-0.10;99.90
25138;DHT22;13112;50.986;4.354;2023-03-02T05:25:19;-0.10;99.90
25138;DHT22;13112;50.986;4.354;2023-03-02T05:27:45;-0.20;99.90
25138;DHT22;13112;50.986;4.354;2023-03-02T05:30:11;-0.20;99.90
25138;DHT22;13112;50.986;4.354;2023-03-02T05:32:37;-0.20;99.90
25138;DHT22;13112;50.986;4.354;2023-03-02T05:35:03;-0.20;99.90
25138;DHT22;13112;50.986;4.354;2023-03-02T05:37:29;-0.20;99.90
25138;DHT22;13112;50.986;4.354;2023-03-02T05:39:54;0.00;99.90
25138;DHT22;13112;50.986;4.354;2023-03-02T05:42:20;-0.10;99.90
25138;DHT22;13112;50.986;4.354;2023-03-02T05:44:45;-0.20;99.90
25138;DHT22;13112;50.986;4.354;2023-03-02T05:47:11;-0.10;99.90
25138;DHT22;13112;50.986;4.354;2023-03-02T05:49:37;-0.20;99.90
25138;DHT22;13112;50.986;4.354;2023-03-02T05:52:02;-0.20;99.90
25138;DHT22;13112;50.986;4.354;2023-03-02T05:54:28;-0.20;99.90
25138;DHT22;13112;50.986;4.354;2023-03-02T05:56:54;-0.20;99.90
25138;DHT22;13112;50.986;4.354;2023-03-02T05:59:19;-0.20;99.90
25138;DHT22;13112;50.986;4.354;2023-03-02T06:01:45;-0.20;99.90
25138;DHT22;13112;50.986;4.354;2023-03-02T06:04:12;-0.10;99.90
25138;DHT22;13112;50.986;4.354;2023-03-02T06:06:37;-0.10;99.90
25138;DHT22;13112;50.986;4.354;2023-03-02T06:09:03;-0.20;99.90
25138;DHT22;13112;50.986;4.354;2023-03-02T06:11:29;-0.20;99.90
25138;DHT22;13112;50.986;4.354;2023-03-02T06:13:55;-0.10;99.90
25138;DHT22;13112;50.986;4.354;2023-03-02T06:16:20;-0.20;99.90
25138;DHT22;13112;50.986;4.354;2023-03-02T06:18:46;-0.10;99.90
25138;DHT22;13112;50.986;4.354;2023-03-02T06:21:12;-0.20;99.90
25138;DHT22;13112;50.986;4.354;2023-03-02T06:23:37;-0.20;99.90
25138;DHT22;13112;50.986;4.354;2023-03-02T06:26:10;-0.20;99.90
25138;DHT22;13112;50.986;4.354;2023-03-02T06:28:37;-0.10;99.90
25138;DHT22;13112;50.986;4.354;2023-03-02T06:31:03;-0.10;99.90
25138;DHT22;13112;50.986;4.354;2023-03-02T06:33:29;-0.20;99.90
25138;DHT22;13112;50.986;4.354;2023-03-02T06:35:55;-0.10;99.90
25138;DHT22;13112;50.986;4.354;2023-03-02T06:38:22;-0.20;99.90
25138;DHT22;13112;50.986;4.354;2023-03-02T06:40:47;-0.20;99.90
25138;DHT22;13112;50.986;4.354;2023-03-02T06:43:13;-0.20;99.90
25138;DHT22;13112;50.986;4.354;2023-03-02T06:45:39;-0.10;99.90
25138;DHT22;13112;50.986;4.354;2023-03-02T06:48:05;-0.10;99.90
25138;DHT22;13112;50.986;4.354;2023-03-02T06:50:32;0.00;99.90
25138;DHT22;13112;50.986;4.354;2023-03-02T06:52:58;0.00;99.90
25138;DHT22;13112;50.986;4.354;2023-03-02T06:55:24;0.10;99.90
25138;DHT22;13112;50.986;4.354;2023-03-02T06:57:50;0.10;99.90
25138;DHT22;13112;50.986;4.354;2023-03-02T07:00:16;0.20;99.90
25138;DHT22;13112;50.986;4.354;2023-03-02T07:02:49;0.30;99.90
25138;DHT22;13112;50.986;4.354;2023-03-02T07:05:15;0.40;99.90
25138;DHT22;13112;50.986;4.354;2023-03-02T07:07:41;0.50;99.90
25138;DHT22;13112;50.986;4.354;2023-03-02T07:10:08;0.60;99.90
25138;DHT22;13112;50.986;4.354;2023-03-02T07:12:35;0.80;99.90
25138;DHT22;13112;50.986;4.354;2023-03-02T07:15:02;1.60;99.90
25138;DHT22;13112;50.986;4.354;2023-03-02T07:17:28;2.70;99.90
25138;DHT22;13112;50.986;4.354;2023-03-02T07:19:54;3.90;99.90
25138;DHT22;13112;50.986;4.354;2023-03-02T07:22:20;4.80;99.90
25138;DHT22;13112;50.986;4.354;2023-03-02T07:24:46;5.60;99.90
25138;DHT22;13112;50.986;4.354;2023-03-02T07:27:11;6.30;99.90
25138;DHT22;13112;50.986;4.354;2023-03-02T07:29:37;7.10;99.90
25138;DHT22;13112;50.986;4.354;2023-03-02T07:32:03;7.70;99.90
25138;DHT22;13112;50.986;4.354;2023-03-02T07:34:31;8.40;99.90
25138;DHT22;13112;50.986;4.354;2023-03-02T07:36:56;9.10;99.90
25138;DHT22;13112;50.986;4.354;2023-03-02T07:39:22;9.80;99.90
25138;DHT22;13112;50.986;4.354;2023-03-02T07:41:48;10.50;99.90
25138;DHT22;13112;50.986;4.354;2023-03-02T07:44:14;11.00;99.90
25138;DHT22;13112;50.986;4.354;2023-03-02T07:46:40;11.70;99.90
25138;DHT22;13112;50.986;4.354;2023-03-02T07:49:05;11.90;99.90
25138;DHT22;13112;50.986;4.354;2023-03-02T07:51:31;12.40;99.90
25138;DHT22;13112;50.986;4.354;2023-03-02T07:53:57;12.60;99.90
25138;DHT22;13112;50.986;4.354;2023-03-02T07:56:22;12.60;99.90
25138;DHT22;13112;50.986;4.354;2023-03-02T07:58:48;13.00;99.90
25138;DHT22;13112;50.986;4.354;2023-03-02T08:01:14;13.50;99.10
25138;DHT22;13112;50.986;4.354;2023-03-02T08:03:39;13.50;97.30
25138;DHT22;13112;50.986;4.354;2023-03-02T08:06:07;13.40;97.30
25138;DHT22;13112;50.986;4.354;2023-03-02T08:08:34;13.20;96.80
25138;DHT22;13112;50.986;4.354;2023-03-02T08:11:08;13.30;96.20
25138;DHT22;13112;50.986;4.354;2023-03-02T08:13:34;13.20;95.90
25138;DHT22;13112;50.986;4.354;2023-03-02T08:16:04;13.10;96.30
25138;DHT22;13112;50.986;4.354;2023-03-02T08:18:31;13.20;95.70
25138;DHT22;13112;50.986;4.354;2023-03-02T08:20:57;14.20;95.20
25138;DHT22;13112;50.986;4.354;2023-03-02T08:23:24;14.40;94.40
25138;DHT22;13112;50.986;4.354;2023-03-02T08:25:51;14.80;93.10
25138;DHT22;13112;50.986;4.354;2023-03-02T08:28:17;14.70;93.00
25138;DHT22;13112;50.986;4.354;2023-03-02T08:30:43;14.10;93.20
25138;DHT22;13112;50.986;4.354;2023-03-02T08:33:08;13.70;93.00
25138;DHT22;13112;50.986;4.354;2023-03-02T08:35:34;12.00;93.60
25138;DHT22;13112;50.986;4.354;2023-03-02T08:38:00;10.40;96.10
25138;DHT22;13112;50.986;4.354;2023-03-02T08:40:26;9.70;97.50
25138;DHT22;13112;50.986;4.354;2023-03-02T08:42:51;8.60;99.80
25138;DHT22;13112;50.986;4.354;2023-03-02T08:45:25;8.60;99.90
25138;DHT22;13112;50.986;4.354;2023-03-02T08:47:53;9.00;99.90
25138;DHT22;13112;50.986;4.354;2023-03-02T08:50:20;9.70;99.90
25138;DHT22;13112;50.986;4.354;2023-03-02T08:52:46;10.60;99.40
25138;DHT22;13112;50.986;4.354;2023-03-02T08:55:11;11.60;98.30
25138;DHT22;13112;50.986;4.354;2023-03-02T08:57:38;12.30;96.40
25138;DHT22;13112;50.986;4.354;2023-03-02T09:00:06;13.50;95.20
25138;DHT22;13112;50.986;4.354;2023-03-02T09:02:33;14.50;94.60
25138;DHT22;13112;50.986;4.354;2023-03-02T09:04:59;14.70;92.90
25138;DHT22;13112;50.986;4.354;2023-03-02T09:07:25;15.30;93.40
25138;DHT22;13112;50.986;4.354;2023-03-02T09:09:50;16.20;91.40
25138;DHT22;13112;50.986;4.354;2023-03-02T09:12:16;16.30;90.20
25138;DHT22;13112;50.986;4.354;2023-03-02T09:14:41;16.80;89.80
25138;DHT22;13112;50.986;4.354;2023-03-02T09:17:07;17.40;87.70
25138;DHT22;13112;50.986;4.354;2023-03-02T09:19:33;17.40;84.60
25138;DHT22;13112;50.986;4.354;2023-03-02T09:22:06;17.50;84.20
25138;DHT22;13112;50.986;4.354;2023-03-02T09:24:33;17.60;83.50
25138;DHT22;13112;50.986;4.354;2023-03-02T09:27:00;17.30;82.80
25138;DHT22;13112;50.986;4.354;2023-03-02T09:29:26;16.40;85.10
25138;DHT22;13112;50.986;4.354;2023-03-02T09:31:52;17.00;83.50
25138;DHT22;13112;50.986;4.354;2023-03-02T09:34:17;17.00;82.60
25138;DHT22;13112;50.986;4.354;2023-03-02T09:36:43;16.50;83.00
25138;DHT22;13112;50.986;4.354;2023-03-02T09:39:09;17.60;83.00
25138;DHT22;13112;50.986;4.354;2023-03-02T09:44:59;17.50;79.80
25138;DHT22;13112;50.986;4.354;2023-03-02T09:47:37;17.50;79.80
25138;DHT22;13112;50.986;4.354;2023-03-02T09:55:34;18.90;75.90
25138;DHT22;13112;50.986;4.354;2023-03-02T09:58:05;18.90;75.90
25138;DHT22;13112;50.986;4.354;2023-03-02T10:00:37;19.60;73.60
25138;DHT22;13112;50.986;4.354;2023-03-02T10:03:09;19.30;74.60
25138;DHT22;13112;50.986;4.354;2023-03-02T10:05:41;20.40;73.60
25138;DHT22;13112;50.986;4.354;2023-03-02T10:08:14;20.80;72.60
25138;DHT22;13112;50.986;4.354;2023-03-02T10:10:54;21.60;69.60
25138;DHT22;13112;50.986;4.354;2023-03-02T10:13:33;21.00;68.10
25138;DHT22;13112;50.986;4.354;2023-03-02T10:19:09;21.00;67.90
25138;DHT22;13112;50.986;4.354;2023-03-02T10:21:43;21.00;67.20
25138;DHT22;13112;50.986;4.354;2023-03-02T10:24:28;21.50;68.50
25138;DHT22;13112;50.986;4.354;2023-03-02T10:26:59;22.40;65.50
25138;DHT22;13112;50.986;4.354;2023-03-02T10:29:49;23.00;63.40
25138;DHT22;13112;50.986;4.354;2023-03-02T10:32:19;22.70;61.10
25138;DHT22;13112;50.986;4.354;2023-03-02T10:34:46;23.30;62.40
25138;DHT22;13112;50.986;4.354;2023-03-02T10:37:24;24.10;59.80
25138;DHT22;13112;50.986;4.354;2023-03-02T10:39:51;23.90;57.60
25138;DHT22;13112;50.986;4.354;2023-03-02T10:44:54;23.30;59.30
25138;DHT22;13112;50.986;4.354;2023-03-02T10:47:26;24.00;58.50
25138;DHT22;13112;50.986;4.354;2023-03-02T10:49:53;23.20;55.60
25138;DHT22;13112;50.986;4.354;2023-03-02T10:52:23;22.90;56.30
25138;DHT22;13112;50.986;4.354;2023-03-02T10:55:01;23.40;56.00
25138;DHT22;13112;50.986;4.354;2023-03-02T10:57:28;23.90;56.20
25138;DHT22;13112;50.986;4.354;2023-03-02T11:00:04;22.90;56.00
25138;DHT22;13112;50.986;4.354;2023-03-02T11:02:33;22.90;56.60
25138;DHT22;13112;50.986;4.354;2023-03-02T11:10:31;23.20;57.30
25138;DHT22;13112;50.986;4.354;2023-03-02T11:13:00;23.20;55.20
25138;DHT22;13112;50.986;4.354;2023-03-02T11:15:35;23.40;56.40
25138;DHT22;13112;50.986;4.354;2023-03-02T11:21:21;24.40;53.80
25138;DHT22;13112;50.986;4.354;2023-03-02T11:26:27;24.90;53.70
25138;DHT22;13112;50.986;4.354;2023-03-02T11:28:59;25.30;50.90
25138;DHT22;13112;50.986;4.354;2023-03-02T11:37:19;25.80;51.50
25138;DHT22;13112;50.986;4.354;2023-03-02T11:42:25;26.60;50.50
25138;DHT22;13112;50.986;4.354;2023-03-02T11:44:51;25.90;50.60
25138;DHT22;13112;50.986;4.354;2023-03-02T11:47:18;26.30;50.90
25138;DHT22;13112;50.986;4.354;2023-03-02T11:49:51;26.40;49.70
25138;DHT22;13112;50.986;4.354;2023-03-02T11:52:21;26.30;48.50
25138;DHT22;13112;50.986;4.354;2023-03-02T11:55:23;26.20;49.20
25138;DHT22;13112;50.986;4.354;2023-03-02T11:57:55;25.50;49.50
25138;DHT22;13112;50.986;4.354;2023-03-02T12:00:32;25.70;48.20
25138;DHT22;13112;50.986;4.354;2023-03-02T12:03:21;25.70;49.00
25138;DHT22;13112;50.986;4.354;2023-03-02T12:13:42;25.80;48.30
25138;DHT22;13112;50.986;4.354;2023-03-02T12:16:34;24.90;49.30
25138;DHT22;13112;50.986;4.354;2023-03-02T12:19:27;24.40;49.10
25138;DHT22;13112;50.986;4.354;2023-03-02T12:21:59;24.60;49.50
25138;DHT22;13112;50.986;4.354;2023-03-02T12:24:33;25.70;49.10
25138;DHT22;13112;50.986;4.354;2023-03-02T12:29:49;25.50;47.80
25138;DHT22;13112;50.986;4.354;2023-03-02T12:35:11;25.90;48.30
25138;DHT22;13112;50.986;4.354;2023-03-02T12:37:47;26.80;47.90
25138;DHT22;13112;50.986;4.354;2023-03-02T12:50:48;27.10;44.90
25138;DHT22;13112;50.986;4.354;2023-03-02T12:53:18;26.40;47.00
25138;DHT22;13112;50.986;4.354;2023-03-02T12:55:44;26.70;46.40
25138;DHT22;13112;50.986;4.354;2023-03-02T12:58:22;26.50;45.90
25138;DHT22;13112;50.986;4.354;2023-03-02T13:00:51;25.60;46.70
25138;DHT22;13112;50.986;4.354;2023-03-02T13:03:17;25.60;47.40
25138;DHT22;13112;50.986;4.354;2023-03-02T13:05:43;25.60;48.30
25138;DHT22;13112;50.986;4.354;2023-03-02T13:08:21;25.90;47.90
25138;DHT22;13112;50.986;4.354;2023-03-02T13:10:49;25.50;48.10
25138;DHT22;13112;50.986;4.354;2023-03-02T13:13:21;26.30;47.60
25138;DHT22;13112;50.986;4.354;2023-03-02T13:15:58;26.20;46.60
25138;DHT22;13112;50.986;4.354;2023-03-02T13:18:28;25.80;47.60
25138;DHT22;13112;50.986;4.354;2023-03-02T13:20:57;25.70;47.60
25138;DHT22;13112;50.986;4.354;2023-03-02T13:23:24;24.90;47.80
25138;DHT22;13112;50.986;4.354;2023-03-02T13:25:53;24.40;47.50
25138;DHT22;13112;50.986;4.354;2023-03-02T13:28:28;24.20;48.60
25138;DHT22;13112;50.986;4.354;2023-03-02T13:31:18;24.60;48.60
25138;DHT22;13112;50.986;4.354;2023-03-02T13:33:45;24.60;48.90
25138;DHT22;13112;50.986;4.354;2023-03-02T13:36:28;24.70;48.00
25138;DHT22;13112;50.986;4.354;2023-03-02T13:38:57;24.30;47.60
25138;DHT22;13112;50.986;4.354;2023-03-02T13:41:28;24.40;48.10
25138;DHT22;13112;50.986;4.354;2023-03-02T13:43:55;25.00;46.80
25138;DHT22;13112;50.986;4.354;2023-03-02T13:49:04;24.00;50.00
25138;DHT22;13112;50.986;4.354;2023-03-02T13:51:37;24.20;48.80
25138;DHT22;13112;50.986;4.354;2023-03-02T13:54:19;24.20;48.70
25138;DHT22;13112;50.986;4.354;2023-03-02T13:56:45;24.60;49.00
25138;DHT22;13112;50.986;4.354;2023-03-02T13:59:13;24.30;49.10
25138;DHT22;13112;50.986;4.354;2023-03-02T14:01:39;24.20;49.40
25138;DHT22;13112;50.986;4.354;2023-03-02T14:04:12;24.30;49.10
25138;DHT22;13112;50.986;4.354;2023-03-02T14:06:38;24.00;48.90
25138;DHT22;13112;50.986;4.354;2023-03-02T14:09:04;24.10;48.80
25138;DHT22;13112;50.986;4.354;2023-03-02T14:11:34;24.30;48.50
25138;DHT22;13112;50.986;4.354;2023-03-02T14:14:00;23.60;49.00
25138;DHT22;13112;50.986;4.354;2023-03-02T14:16:28;23.20;49.70
25138;DHT22;13112;50.986;4.354;2023-03-02T14:18:53;22.30;50.60
25138;DHT22;13112;50.986;4.354;2023-03-02T14:21:24;21.80;50.70
25138;DHT22;13112;50.986;4.354;2023-03-02T14:23:50;21.30;52.50
25138;DHT22;13112;50.986;4.354;2023-03-02T14:26:26;21.50;52.00
25138;DHT22;13112;50.986;4.354;2023-03-02T14:28:54;21.40;52.40
25138;DHT22;13112;50.986;4.354;2023-03-02T14:31:20;20.90;52.10
25138;DHT22;13112;50.986;4.354;2023-03-02T14:33:48;21.00;53.20
25138;DHT22;13112;50.986;4.354;2023-03-02T14:36:18;21.00;52.30
25138;DHT22;13112;50.986;4.354;2023-03-02T14:38:46;20.80;52.90
25138;DHT22;13112;50.986;4.354;2023-03-02T14:41:20;21.00;53.60
25138;DHT22;13112;50.986;4.354;2023-03-02T14:43:46;21.40;52.80
25138;DHT22;13112;50.986;4.354;2023-03-02T14:46:12;21.50;52.80
25138;DHT22;13112;50.986;4.354;2023-03-02T14:48:37;21.50;52.60
25138;DHT22;13112;50.986;4.354;2023-03-02T14:51:03;20.90;52.20
25138;DHT22;13112;50.986;4.354;2023-03-02T14:53:32;21.10;52.80
25138;DHT22;13112;50.986;4.354;2023-03-02T14:55:58;21.20;52.60
25138;DHT22;13112;50.986;4.354;2023-03-02T14:58:32;21.60;52.80
25138;DHT22;13112;50.986;4.354;2023-03-02T15:00:58;20.90;53.00
25138;DHT22;13112;50.986;4.354;2023-03-02T15:03:24;20.60;53.30
25138;DHT22;13112;50.986;4.354;2023-03-02T15:05:52;20.70;53.80
25138;DHT22;13112;50.986;4.354;2023-03-02T15:08:19;21.30;53.10
25138;DHT22;13112;50.986;4.354;2023-03-02T15:10:45;21.40;53.10
25138;DHT22;13112;50.986;4.354;2023-03-02T15:13:12;21.40;54.10
25138;DHT22;13112;50.986;4.354;2023-03-02T15:15:42;21.20;53.30
25138;DHT22;13112;50.986;4.354;2023-03-02T15:18:10;20.70;53.30
25138;DHT22;13112;50.986;4.354;2023-03-02T15:20:36;20.10;54.10
25138;DHT22;13112;50.986;4.354;2023-03-02T15:23:02;20.20;55.00
25138;DHT22;13112;50.986;4.354;2023-03-02T15:25:28;20.00;54.90
25138;DHT22;13112;50.986;4.354;2023-03-02T15:27:55;20.10;55.40
25138;DHT22;13112;50.986;4.354;2023-03-02T15:30:21;19.60;55.40
25138;DHT22;13112;50.986;4.354;2023-03-02T15:32:49;18.30;57.00
25138;DHT22;13112;50.986;4.354;2023-03-02T15:35:16;16.30;60.80
25138;DHT22;13112;50.986;4.354;2023-03-02T15:37:41;15.10;63.40
25138;DHT22;13112;50.986;4.354;2023-03-02T15:40:08;14.20;66.80
25138;DHT22;13112;50.986;4.354;2023-03-02T15:42:34;13.80;68.40
25138;DHT22;13112;50.986;4.354;2023-03-02T15:44:59;13.30;70.90
25138;DHT22;13112;50.986;4.354;2023-03-02T15:47:25;13.30;71.60
25138;DHT22;13112;50.986;4.354;2023-03-02T15:49:51;13.10;72.10
25138;DHT22;13112;50.986;4.354;2023-03-02T15:52:16;13.20;72.50
25138;DHT22;13112;50.986;4.354;2023-03-02T15:54:44;13.20;72.80
25138;DHT22;13112;50.986;4.354;2023-03-02T15:57:10;13.20;73.20
25138;DHT22;13112;50.986;4.354;2023-03-02T15:59:35;13.10;74.00
25138;DHT22;13112;50.986;4.354;2023-03-02T16:02:01;13.10;74.10
25138;DHT22;13112;50.986;4.354;2023-03-02T16:04:28;13.00;74.30
25138;DHT22;13112;50.986;4.354;2023-03-02T16:06:55;12.80;74.80
25138;DHT22;13112;50.986;4.354;2023-03-02T16:09:22;12.70;75.10
25138;DHT22;13112;50.986;4.354;2023-03-02T16:11:49;12.50;75.60
25138;DHT22;13112;50.986;4.354;2023-03-02T16:14:15;12.40;75.50
25138;DHT22;13112;50.986;4.354;2023-03-02T16:16:41;12.30;75.90
25138;DHT22;13112;50.986;4.354;2023-03-02T16:19:12;12.00;76.70
25138;DHT22;13112;50.986;4.354;2023-03-02T16:21:38;11.90;78.20
25138;DHT22;13112;50.986;4.354;2023-03-02T16:24:04;12.00;78.40
25138;DHT22;13112;50.986;4.354;2023-03-02T16:26:32;12.10;77.30
25138;DHT22;13112;50.986;4.354;2023-03-02T16:28:58;12.00;78.10
25138;DHT22;13112;50.986;4.354;2023-03-02T16:31:24;12.00;78.10
25138;DHT22;13112;50.986;4.354;2023-03-02T16:33:51;11.90;78.00
25138;DHT22;13112;50.986;4.354;2023-03-02T16:36:19;11.80;78.60
25138;DHT22;13112;50.986;4.354;2023-03-02T16:38:45;11.80;79.20
25138;DHT22;13112;50.986;4.354;2023-03-02T16:41:21;11.70;79.40
25138;DHT22;13112;50.986;4.354;2023-03-02T16:43:52;11.70;79.60
25138;DHT22;13112;50.986;4.354;2023-03-02T16:46:19;11.50;80.10
25138;DHT22;13112;50.986;4.354;2023-03-02T16:48:46;11.40;80.10
25138;DHT22;13112;50.986;4.354;2023-03-02T16:51:12;11.10;80.10